sensor_id;sensor_type;location;lat;lon;timestamp;P1;durP1;ratioP1;P2;durP2;ratioP2
63943;SDS011;50121;51.218;7.664;2023-07-20T00:02:13;13.68;;;11.13;;
63943;SDS011;50121;51.218;7.664;2023-07-20T00:04:41;14.57;;;11.73;;
63943;SDS011;50121;51.218;7.664;2023-07-20T00:07:08;11.85;;;10.75;;
63943;SDS011;50121;51.218;7.664;2023-07-20T00:09:36;12.57;;;11.35;;
63943;SDS011;50121;51.218;7.664;2023-07-20T00:12:04;11.93;;;10.80;;
63943;SDS011;50121;51.218;7.664;2023-07-20T00:14:31;12.90;;;11.07;;
63943;SDS011;50121;51.218;7.664;2023-07-20T00:16:59;15.02;;;12.48;;
63943;SDS011;50121;51.218;7.664;2023-07-20T00:19:27;13.10;;;11.73;;
63943;SDS011;50121;51.218;7.664;2023-07-20T00:21:55;15.40;;;12.18;;
63943;SDS011;50121;51.218;7.664;2023-07-20T00:24:22;12.50;;;11.40;;
63943;SDS011;50121;51.218;7.664;2023-07-20T00:26:50;15.45;;;12.45;;
63943;SDS011;50121;51.218;7.664;2023-07-20T00:29:18;13.95;;;11.77;;
63943;SDS011;50121;51.218;7.664;2023-07-20T00:31:46;12.82;;;11.30;;
63943;SDS011;50121;51.218;7.664;2023-07-20T00:34:13;15.70;;;13.00;;
63943;SDS011;50121;51.218;7.664;2023-07-20T00:36:41;12.73;;;11.38;;
63943;SDS011;50121;51.218;7.664;2023-07-20T00:39:09;15.18;;;12.80;;
63943;SDS011;50121;51.218;7.664;2023-07-20T00:41:36;13.43;;;12.02;;
63943;SDS011;50121;51.218;7.664;2023-07-20T00:44:04;13.23;;;11.85;;
63943;SDS011;50121;51.218;7.664;2023-07-20T00:46:32;16.13;;;13.10;;
63943;SDS011;50121;51.218;7.664;2023-07-20T00:49:00;16.42;;;13.20;;
63943;SDS011;50121;51.218;7.664;2023-07-20T00:51:28;13.65;;;12.18;;
63943;SDS011;50121;51.218;7.664;2023-07-20T00:53:56;15.18;;;13.40;;
63943;SDS011;50121;51.218;7.664;2023-07-20T00:56:24;14.70;;;13.20;;
63943;SDS011;50121;51.218;7.664;2023-07-20T00:58:52;13.32;;;12.15;;
63943;SDS011;50121;51.218;7.664;2023-07-20T01:01:21;17.13;;;13.38;;
63943;SDS011;50121;51.218;7.664;2023-07-20T01:03:49;15.25;;;13.35;;
63943;SDS011;50121;51.218;7.664;2023-07-20T01:06:24;15.93;;;14.32;;
63943;SDS011;50121;51.218;7.664;2023-07-20T01:09:13;14.75;;;13.25;;
63943;SDS011;50121;51.218;7.664;2023-07-20T01:11:43;16.08;;;13.63;;
63943;SDS011;50121;51.218;7.664;2023-07-20T01:14:14;19.58;;;17.23;;
63943;SDS011;50121;51.218;7.664;2023-07-20T01:16:43;17.85;;;14.93;;
63943;SDS011;50121;51.218;7.664;2023-07-20T01:19:12;16.40;;;14.70;;
63943;SDS011;50121;51.218;7.664;2023-07-20T01:31:54;16.95;;;15.20;;
63943;SDS011;50121;51.218;7.664;2023-07-20T01:34:22;15.57;;;13.98;;
63943;SDS011;50121;51.218;7.664;2023-07-20T01:36:50;16.20;;;14.50;;
63943;SDS011;50121;51.218;7.664;2023-07-20T01:39:20;16.98;;;15.35;;
63943;SDS011;50121;51.218;7.664;2023-07-20T01:41:48;16.95;;;14.95;;
63943;SDS011;50121;51.218;7.664;2023-07-20T01:44:16;16.08;;;14.35;;
63943;SDS011;50121;51.218;7.664;2023-07-20T01:46:43;16.35;;;14.52;;
63943;SDS011;50121;51.218;7.664;2023-07-20T01:49:11;17.40;;;15.45;;
63943;SDS011;50121;51.218;7.664;2023-07-20T01:51:39;16.80;;;15.18;;
63943;SDS011;50121;51.218;7.664;2023-07-20T01:54:07;17.23;;;14.30;;
63943;SDS011;50121;51.218;7.664;2023-07-20T01:56:35;17.45;;;15.20;;
63943;SDS011;50121;51.218;7.664;2023-07-20T01:59:02;16.38;;;14.63;;
63943;SDS011;50121;51.218;7.664;2023-07-20T02:01:30;18.13;;;14.93;;
63943;SDS011;50121;51.218;7.664;2023-07-20T02:03:57;18.75;;;15.60;;
63943;SDS011;50121;51.218;7.664;2023-07-20T02:06:25;16.48;;;14.70;;
63943;SDS011;50121;51.218;7.664;2023-07-20T02:08:53;16.83;;;15.07;;
63943;SDS011;50121;51.218;7.664;2023-07-20T02:11:20;16.27;;;14.55;;
63943;SDS011;50121;51.218;7.664;2023-07-20T02:13:48;15.25;;;13.65;;
63943;SDS011;50121;51.218;7.664;2023-07-20T02:16:15;14.25;;;12.65;;
63943;SDS011;50121;51.218;7.664;2023-07-20T02:18:43;13.80;;;12.40;;
63943;SDS011;50121;51.218;7.664;2023-07-20T02:21:10;14.00;;;12.60;;
63943;SDS011;50121;51.218;7.664;2023-07-20T02:23:38;14.40;;;12.98;;
63943;SDS011;50121;51.218;7.664;2023-07-20T02:26:06;13.80;;;12.57;;
63943;SDS011;50121;51.218;7.664;2023-07-20T02:28:33;14.80;;;13.30;;
63943;SDS011;50121;51.218;7.664;2023-07-20T02:31:01;14.85;;;13.38;;
63943;SDS011;50121;51.218;7.664;2023-07-20T02:33:28;13.63;;;12.23;;
63943;SDS011;50121;51.218;7.664;2023-07-20T02:35:56;14.60;;;13.07;;
63943;SDS011;50121;51.218;7.664;2023-07-20T02:38:23;14.10;;;12.77;;
63943;SDS011;50121;51.218;7.664;2023-07-20T02:40:51;15.15;;;12.30;;
63943;SDS011;50121;51.218;7.664;2023-07-20T02:43:19;28.27;;;20.38;;
63943;SDS011;50121;51.218;7.664;2023-07-20T02:45:46;14.10;;;12.60;;
63943;SDS011;50121;51.218;7.664;2023-07-20T02:48:14;15.57;;;13.35;;
63943;SDS011;50121;51.218;7.664;2023-07-20T02:50:43;13.98;;;12.57;;
63943;SDS011;50121;51.218;7.664;2023-07-20T02:53:10;14.45;;;12.73;;
63943;SDS011;50121;51.218;7.664;2023-07-20T02:55:38;14.60;;;12.73;;
63943;SDS011;50121;51.218;7.664;2023-07-20T02:58:06;15.25;;;13.75;;
63943;SDS011;50121;51.218;7.664;2023-07-20T03:00:34;14.60;;;13.13;;
63943;SDS011;50121;51.218;7.664;2023-07-20T03:03:01;17.13;;;12.32;;
63943;SDS011;50121;51.218;7.664;2023-07-20T03:05:29;15.05;;;13.40;;
63943;SDS011;50121;51.218;7.664;2023-07-20T03:07:56;16.35;;;12.57;;
63943;SDS011;50121;51.218;7.664;2023-07-20T03:10:29;14.45;;;12.95;;
63943;SDS011;50121;51.218;7.664;2023-07-20T03:12:57;16.15;;;12.13;;
63943;SDS011;50121;51.218;7.664;2023-07-20T03:15:25;14.55;;;13.18;;
63943;SDS011;50121;51.218;7.664;2023-07-20T03:17:52;14.55;;;13.05;;
63943;SDS011;50121;51.218;7.664;2023-07-20T03:20:20;16.58;;;13.10;;
63943;SDS011;50121;51.218;7.664;2023-07-20T03:22:48;16.00;;;14.38;;
63943;SDS011;50121;51.218;7.664;2023-07-20T03:25:15;14.98;;;13.07;;
63943;SDS011;50121;51.218;7.664;2023-07-20T03:27:44;14.25;;;12.73;;
63943;SDS011;50121;51.218;7.664;2023-07-20T03:30:12;15.38;;;13.55;;
63943;SDS011;50121;51.218;7.664;2023-07-20T03:32:40;12.88;;;11.57;;
63943;SDS011;50121;51.218;7.664;2023-07-20T03:35:07;15.77;;;13.77;;
63943;SDS011;50121;51.218;7.664;2023-07-20T03:37:35;14.98;;;13.45;;
63943;SDS011;50121;51.218;7.664;2023-07-20T03:40:03;15.30;;;13.15;;
63943;SDS011;50121;51.218;7.664;2023-07-20T03:42:31;14.50;;;13.00;;
63943;SDS011;50121;51.218;7.664;2023-07-20T03:44:59;16.60;;;13.55;;
63943;SDS011;50121;51.218;7.664;2023-07-20T03:47:27;20.27;;;17.27;;
63943;SDS011;50121;51.218;7.664;2023-07-20T03:49:55;13.38;;;11.98;;
63943;SDS011;50121;51.218;7.664;2023-07-20T03:52:22;15.20;;;12.52;;
63943;SDS011;50121;51.218;7.664;2023-07-20T03:54:50;13.90;;;12.52;;
63943;SDS011;50121;51.218;7.664;2023-07-20T03:57:18;16.90;;;12.73;;
63943;SDS011;50121;51.218;7.664;2023-07-20T03:59:45;14.32;;;12.88;;
63943;SDS011;50121;51.218;7.664;2023-07-20T04:02:13;14.88;;;13.23;;
63943;SDS011;50121;51.218;7.664;2023-07-20T04:04:42;15.88;;;12.02;;
63943;SDS011;50121;51.218;7.664;2023-07-20T04:07:10;17.05;;;13.95;;
63943;SDS011;50121;51.218;7.664;2023-07-20T04:09:41;15.63;;;12.68;;
63943;SDS011;50121;51.218;7.664;2023-07-20T04:12:08;15.13;;;12.10;;
63943;SDS011;50121;51.218;7.664;2023-07-20T04:14:36;18.23;;;13.10;;
63943;SDS011;50121;51.218;7.664;2023-07-20T04:17:04;19.67;;;16.52;;
63943;SDS011;50121;51.218;7.664;2023-07-20T04:19:31;17.25;;;14.00;;
63943;SDS011;50121;51.218;7.664;2023-07-20T04:21:59;16.85;;;13.57;;
63943;SDS011;50121;51.218;7.664;2023-07-20T04:24:27;17.83;;;13.75;;
63943;SDS011;50121;51.218;7.664;2023-07-20T04:26:54;16.80;;;13.85;;
63943;SDS011;50121;51.218;7.664;2023-07-20T04:29:22;16.35;;;13.02;;
63943;SDS011;50121;51.218;7.664;2023-07-20T04:31:49;18.10;;;14.05;;
63943;SDS011;50121;51.218;7.664;2023-07-20T04:34:17;17.98;;;13.93;;
63943;SDS011;50121;51.218;7.664;2023-07-20T04:36:45;16.88;;;13.95;;
63943;SDS011;50121;51.218;7.664;2023-07-20T04:39:12;19.77;;;13.73;;
63943;SDS011;50121;51.218;7.664;2023-07-20T04:41:48;18.02;;;13.02;;
63943;SDS011;50121;51.218;7.664;2023-07-20T04:44:16;15.48;;;13.55;;
63943;SDS011;50121;51.218;7.664;2023-07-20T04:46:44;20.92;;;14.82;;
63943;SDS011;50121;51.218;7.664;2023-07-20T04:49:12;19.00;;;15.32;;
63943;SDS011;50121;51.218;7.664;2023-07-20T04:51:42;21.90;;;14.77;;
63943;SDS011;50121;51.218;7.664;2023-07-20T04:54:10;20.30;;;15.38;;
63943;SDS011;50121;51.218;7.664;2023-07-20T04:56:38;20.60;;;15.38;;
63943;SDS011;50121;51.218;7.664;2023-07-20T04:59:08;22.08;;;16.73;;
63943;SDS011;50121;51.218;7.664;2023-07-20T05:01:36;17.83;;;14.73;;
63943;SDS011;50121;51.218;7.664;2023-07-20T05:04:03;22.80;;;17.40;;
63943;SDS011;50121;51.218;7.664;2023-07-20T05:06:33;22.52;;;16.63;;
63943;SDS011;50121;51.218;7.664;2023-07-20T05:09:01;22.08;;;16.95;;
63943;SDS011;50121;51.218;7.664;2023-07-20T05:11:29;21.42;;;16.30;;
63943;SDS011;50121;51.218;7.664;2023-07-20T05:13:56;19.52;;;16.23;;
63943;SDS011;50121;51.218;7.664;2023-07-20T05:16:24;20.95;;;15.27;;
63943;SDS011;50121;51.218;7.664;2023-07-20T05:18:52;20.45;;;16.10;;
63943;SDS011;50121;51.218;7.664;2023-07-20T05:21:20;23.35;;;17.15;;
63943;SDS011;50121;51.218;7.664;2023-07-20T05:23:48;19.35;;;16.77;;
63943;SDS011;50121;51.218;7.664;2023-07-20T05:26:15;33.65;;;26.70;;
63943;SDS011;50121;51.218;7.664;2023-07-20T05:28:43;19.73;;;16.35;;
63943;SDS011;50121;51.218;7.664;2023-07-20T05:31:10;19.10;;;15.85;;
63943;SDS011;50121;51.218;7.664;2023-07-20T05:33:38;22.88;;;16.52;;
63943;SDS011;50121;51.218;7.664;2023-07-20T05:36:05;20.38;;;15.80;;
63943;SDS011;50121;51.218;7.664;2023-07-20T05:38:33;18.55;;;14.57;;
63943;SDS011;50121;51.218;7.664;2023-07-20T05:41:00;20.05;;;15.68;;
63943;SDS011;50121;51.218;7.664;2023-07-20T05:43:29;21.92;;;16.52;;
63943;SDS011;50121;51.218;7.664;2023-07-20T05:45:57;20.58;;;16.77;;
63943;SDS011;50121;51.218;7.664;2023-07-20T05:48:25;19.45;;;15.68;;
63943;SDS011;50121;51.218;7.664;2023-07-20T05:50:53;17.63;;;15.30;;
63943;SDS011;50121;51.218;7.664;2023-07-20T05:53:20;16.90;;;14.35;;
63943;SDS011;50121;51.218;7.664;2023-07-20T05:55:52;17.90;;;13.90;;
63943;SDS011;50121;51.218;7.664;2023-07-20T05:58:20;19.33;;;14.93;;
63943;SDS011;50121;51.218;7.664;2023-07-20T06:00:48;19.40;;;17.35;;
63943;SDS011;50121;51.218;7.664;2023-07-20T06:03:16;18.55;;;15.85;;
63943;SDS011;50121;51.218;7.664;2023-07-20T06:05:45;21.25;;;15.82;;
63943;SDS011;50121;51.218;7.664;2023-07-20T06:08:12;20.92;;;16.15;;
63943;SDS011;50121;51.218;7.664;2023-07-20T06:10:40;19.02;;;15.30;;
63943;SDS011;50121;51.218;7.664;2023-07-20T06:13:09;17.75;;;15.73;;
63943;SDS011;50121;51.218;7.664;2023-07-20T06:15:36;21.00;;;15.90;;
63943;SDS011;50121;51.218;7.664;2023-07-20T06:18:05;18.40;;;15.85;;
63943;SDS011;50121;51.218;7.664;2023-07-20T06:20:33;19.60;;;17.40;;
63943;SDS011;50121;51.218;7.664;2023-07-20T06:23:00;20.83;;;16.52;;
63943;SDS011;50121;51.218;7.664;2023-07-20T06:25:28;22.70;;;16.35;;
63943;SDS011;50121;51.218;7.664;2023-07-20T06:27:55;20.35;;;16.65;;
63943;SDS011;50121;51.218;7.664;2023-07-20T06:30:23;19.85;;;15.90;;
63943;SDS011;50121;51.218;7.664;2023-07-20T06:32:51;20.60;;;15.40;;
63943;SDS011;50121;51.218;7.664;2023-07-20T06:35:19;19.70;;;15.38;;
63943;SDS011;50121;51.218;7.664;2023-07-20T06:37:46;18.65;;;14.98;;
63943;SDS011;50121;51.218;7.664;2023-07-20T06:40:14;22.33;;;16.63;;
63943;SDS011;50121;51.218;7.664;2023-07-20T06:42:44;20.85;;;16.00;;
63943;SDS011;50121;51.218;7.664;2023-07-20T06:45:15;20.02;;;16.17;;
63943;SDS011;50121;51.218;7.664;2023-07-20T06:47:43;21.45;;;17.00;;
63943;SDS011;50121;51.218;7.664;2023-07-20T06:50:18;19.90;;;15.90;;
63943;SDS011;50121;51.218;7.664;2023-07-20T06:52:46;20.90;;;15.57;;
63943;SDS011;50121;51.218;7.664;2023-07-20T06:55:14;18.27;;;15.35;;
63943;SDS011;50121;51.218;7.664;2023-07-20T06:57:42;19.90;;;16.10;;
63943;SDS011;50121;51.218;7.664;2023-07-20T07:00:11;20.27;;;16.40;;
63943;SDS011;50121;51.218;7.664;2023-07-20T07:02:39;19.40;;;15.48;;
63943;SDS011;50121;51.218;7.664;2023-07-20T07:05:09;19.00;;;15.82;;
63943;SDS011;50121;51.218;7.664;2023-07-20T07:07:39;19.48;;;16.45;;
63943;SDS011;50121;51.218;7.664;2023-07-20T07:10:07;18.15;;;16.08;;
63943;SDS011;50121;51.218;7.664;2023-07-20T07:12:35;17.35;;;14.55;;
63943;SDS011;50121;51.218;7.664;2023-07-20T07:15:03;17.42;;;15.23;;
63943;SDS011;50121;51.218;7.664;2023-07-20T07:17:32;16.42;;;14.73;;
63943;SDS011;50121;51.218;7.664;2023-07-20T07:20:01;16.85;;;14.10;;
63943;SDS011;50121;51.218;7.664;2023-07-20T07:22:30;18.92;;;15.00;;
63943;SDS011;50121;51.218;7.664;2023-07-20T07:24:57;16.25;;;14.35;;
63943;SDS011;50121;51.218;7.664;2023-07-20T07:27:25;15.98;;;14.10;;
63943;SDS011;50121;51.218;7.664;2023-07-20T07:29:52;15.52;;;13.90;;
63943;SDS011;50121;51.218;7.664;2023-07-20T07:32:21;16.35;;;14.75;;
63943;SDS011;50121;51.218;7.664;2023-07-20T07:34:49;16.10;;;14.40;;
63943;SDS011;50121;51.218;7.664;2023-07-20T07:37:16;16.63;;;14.82;;
63943;SDS011;50121;51.218;7.664;2023-07-20T07:39:46;17.70;;;14.55;;
63943;SDS011;50121;51.218;7.664;2023-07-20T07:42:13;15.93;;;13.98;;
63943;SDS011;50121;51.218;7.664;2023-07-20T07:44:41;17.38;;;15.55;;
63943;SDS011;50121;51.218;7.664;2023-07-20T07:47:08;16.60;;;15.00;;
63943;SDS011;50121;51.218;7.664;2023-07-20T07:49:36;15.75;;;14.25;;
63943;SDS011;50121;51.218;7.664;2023-07-20T07:52:04;15.15;;;13.65;;
63943;SDS011;50121;51.218;7.664;2023-07-20T07:54:31;15.23;;;12.90;;
63943;SDS011;50121;51.218;7.664;2023-07-20T07:56:59;14.00;;;12.70;;
63943;SDS011;50121;51.218;7.664;2023-07-20T07:59:26;13.80;;;12.48;;
63943;SDS011;50121;51.218;7.664;2023-07-20T08:01:54;14.02;;;12.73;;
63943;SDS011;50121;51.218;7.664;2023-07-20T08:04:21;15.43;;;12.27;;
63943;SDS011;50121;51.218;7.664;2023-07-20T08:06:49;13.45;;;12.10;;
63943;SDS011;50121;51.218;7.664;2023-07-20T08:09:17;13.68;;;12.32;;
63943;SDS011;50121;51.218;7.664;2023-07-20T08:11:44;14.65;;;12.63;;
63943;SDS011;50121;51.218;7.664;2023-07-20T08:14:12;13.40;;;12.20;;
63943;SDS011;50121;51.218;7.664;2023-07-20T08:16:40;13.13;;;11.93;;
63943;SDS011;50121;51.218;7.664;2023-07-20T08:19:08;13.45;;;12.25;;
63943;SDS011;50121;51.218;7.664;2023-07-20T08:21:35;13.82;;;12.52;;
63943;SDS011;50121;51.218;7.664;2023-07-20T08:24:03;13.13;;;11.93;;
63943;SDS011;50121;51.218;7.664;2023-07-20T08:26:30;24.77;;;20.60;;
63943;SDS011;50121;51.218;7.664;2023-07-20T08:28:58;14.32;;;12.82;;
63943;SDS011;50121;51.218;7.664;2023-07-20T08:31:25;11.68;;;10.68;;
63943;SDS011;50121;51.218;7.664;2023-07-20T08:33:54;10.77;;;9.93;;
63943;SDS011;50121;51.218;7.664;2023-07-20T08:36:23;10.68;;;9.88;;
63943;SDS011;50121;51.218;7.664;2023-07-20T08:38:51;10.65;;;9.75;;
63943;SDS011;50121;51.218;7.664;2023-07-20T08:41:19;10.23;;;9.43;;
63943;SDS011;50121;51.218;7.664;2023-07-20T08:43:49;11.43;;;9.68;;
63943;SDS011;50121;51.218;7.664;2023-07-20T08:46:18;10.40;;;9.50;;
63943;SDS011;50121;51.218;7.664;2023-07-20T08:48:45;10.52;;;9.65;;
63943;SDS011;50121;51.218;7.664;2023-07-20T08:51:13;10.73;;;9.77;;
63943;SDS011;50121;51.218;7.664;2023-07-20T08:53:41;10.30;;;9.50;;
63943;SDS011;50121;51.218;7.664;2023-07-20T08:56:09;8.95;;;8.27;;
63943;SDS011;50121;51.218;7.664;2023-07-20T08:58:38;9.15;;;8.43;;
63943;SDS011;50121;51.218;7.664;2023-07-20T09:01:06;8.63;;;7.82;;
63943;SDS011;50121;51.218;7.664;2023-07-20T09:03:36;8.00;;;7.43;;
63943;SDS011;50121;51.218;7.664;2023-07-20T09:06:05;8.55;;;7.85;;
63943;SDS011;50121;51.218;7.664;2023-07-20T09:08:37;8.82;;;8.18;;
63943;SDS011;50121;51.218;7.664;2023-07-20T09:11:05;8.45;;;7.70;;
63943;SDS011;50121;51.218;7.664;2023-07-20T09:13:33;7.45;;;6.85;;
63943;SDS011;50121;51.218;7.664;2023-07-20T09:16:01;6.57;;;6.10;;
63943;SDS011;50121;51.218;7.664;2023-07-20T09:18:31;6.43;;;5.93;;
63943;SDS011;50121;51.218;7.664;2023-07-20T09:21:00;6.18;;;5.57;;
63943;SDS011;50121;51.218;7.664;2023-07-20T09:23:35;6.63;;;6.07;;
63943;SDS011;50121;51.218;7.664;2023-07-20T09:26:09;6.75;;;6.30;;
63943;SDS011;50121;51.218;7.664;2023-07-20T09:28:48;6.22;;;5.82;;
63943;SDS011;50121;51.218;7.664;2023-07-20T09:31:16;6.50;;;6.10;;
63943;SDS011;50121;51.218;7.664;2023-07-20T09:33:44;6.30;;;5.80;;
63943;SDS011;50121;51.218;7.664;2023-07-20T09:36:15;6.40;;;6.00;;
63943;SDS011;50121;51.218;7.664;2023-07-20T09:38:52;6.20;;;5.80;;
63943;SDS011;50121;51.218;7.664;2023-07-20T09:41:23;5.57;;;5.18;;
63943;SDS011;50121;51.218;7.664;2023-07-20T09:43:55;5.50;;;5.20;;
63943;SDS011;50121;51.218;7.664;2023-07-20T09:46:22;6.18;;;5.78;;
63943;SDS011;50121;51.218;7.664;2023-07-20T09:48:53;6.50;;;6.10;;
63943;SDS011;50121;51.218;7.664;2023-07-20T09:51:23;6.38;;;5.90;;
63943;SDS011;50121;51.218;7.664;2023-07-20T09:53:52;6.45;;;6.05;;
63943;SDS011;50121;51.218;7.664;2023-07-20T09:56:21;16.05;;;14.35;;
63943;SDS011;50121;51.218;7.664;2023-07-20T09:58:52;6.00;;;5.57;;
63943;SDS011;50121;51.218;7.664;2023-07-20T10:01:20;6.32;;;5.93;;
63943;SDS011;50121;51.218;7.664;2023-07-20T10:03:52;6.32;;;5.93;;
63943;SDS011;50121;51.218;7.664;2023-07-20T10:06:23;6.10;;;5.80;;
63943;SDS011;50121;51.218;7.664;2023-07-20T10:08:52;6.10;;;5.80;;
63943;SDS011;50121;51.218;7.664;2023-07-20T10:11:21;6.50;;;6.10;;
63943;SDS011;50121;51.218;7.664;2023-07-20T10:13:51;6.20;;;5.80;;
63943;SDS011;50121;51.218;7.664;2023-07-20T10:16:22;6.78;;;6.38;;
63943;SDS011;50121;51.218;7.664;2023-07-20T10:21:19;5.53;;;5.13;;
63943;SDS011;50121;51.218;7.664;2023-07-20T10:23:50;5.40;;;5.10;;
63943;SDS011;50121;51.218;7.664;2023-07-20T10:26:17;6.07;;;5.68;;
63943;SDS011;50121;51.218;7.664;2023-07-20T10:28:45;6.00;;;5.70;;
63943;SDS011;50121;51.218;7.664;2023-07-20T10:31:13;6.25;;;5.90;;
63943;SDS011;50121;51.218;7.664;2023-07-20T10:33:41;6.03;;;5.53;;
63943;SDS011;50121;51.218;7.664;2023-07-20T10:36:09;5.40;;;5.10;;
63943;SDS011;50121;51.218;7.664;2023-07-20T10:41:19;6.47;;;5.88;;
63943;SDS011;50121;51.218;7.664;2023-07-20T10:43:47;6.50;;;6.10;;
63943;SDS011;50121;51.218;7.664;2023-07-20T10:46:15;6.20;;;5.80;;
63943;SDS011;50121;51.218;7.664;2023-07-20T10:48:59;6.43;;;6.03;;
63943;SDS011;50121;51.218;7.664;2023-07-20T10:51:28;6.28;;;5.88;;
63943;SDS011;50121;51.218;7.664;2023-07-20T10:53:56;6.60;;;6.20;;
63943;SDS011;50121;51.218;7.664;2023-07-20T10:56:26;6.47;;;6.00;;
63943;SDS011;50121;51.218;7.664;2023-07-20T10:58:57;6.60;;;6.10;;
63943;SDS011;50121;51.218;7.664;2023-07-20T11:01:29;6.53;;;6.13;;
63943;SDS011;50121;51.218;7.664;2023-07-20T11:04:00;6.07;;;5.68;;
63943;SDS011;50121;51.218;7.664;2023-07-20T11:08:56;6.85;;;6.35;;
63943;SDS011;50121;51.218;7.664;2023-07-20T11:11:27;6.40;;;5.90;;
63943;SDS011;50121;51.218;7.664;2023-07-20T11:13:59;6.78;;;6.18;;
63943;SDS011;50121;51.218;7.664;2023-07-20T11:19:00;7.10;;;6.55;;
63943;SDS011;50121;51.218;7.664;2023-07-20T11:21:28;6.10;;;5.70;;
63943;SDS011;50121;51.218;7.664;2023-07-20T11:23:55;6.22;;;5.82;;
63943;SDS011;50121;51.218;7.664;2023-07-20T11:26:23;6.78;;;6.15;;
63943;SDS011;50121;51.218;7.664;2023-07-20T11:28:54;6.60;;;6.20;;
63943;SDS011;50121;51.218;7.664;2023-07-20T11:31:28;6.75;;;6.35;;
63943;SDS011;50121;51.218;7.664;2023-07-20T11:33:56;6.60;;;6.20;;
63943;SDS011;50121;51.218;7.664;2023-07-20T11:36:37;6.05;;;5.68;;
63943;SDS011;50121;51.218;7.664;2023-07-20T11:39:08;6.82;;;6.43;;
63943;SDS011;50121;51.218;7.664;2023-07-20T11:41:36;6.57;;;6.07;;
63943;SDS011;50121;51.218;7.664;2023-07-20T11:44:04;6.35;;;5.95;;
63943;SDS011;50121;51.218;7.664;2023-07-20T11:46:34;6.95;;;6.45;;
63943;SDS011;50121;51.218;7.664;2023-07-20T11:49:02;7.25;;;6.68;;
63943;SDS011;50121;51.218;7.664;2023-07-20T11:51:30;7.10;;;6.50;;
63943;SDS011;50121;51.218;7.664;2023-07-20T11:53:58;7.40;;;6.88;;
63943;SDS011;50121;51.218;7.664;2023-07-20T11:56:26;7.50;;;6.90;;
63943;SDS011;50121;51.218;7.664;2023-07-20T11:58:57;8.18;;;7.68;;
63943;SDS011;50121;51.218;7.664;2023-07-20T12:01:27;7.70;;;7.20;;
63943;SDS011;50121;51.218;7.664;2023-07-20T12:03:56;7.93;;;7.43;;
63943;SDS011;50121;51.218;7.664;2023-07-20T12:06:24;8.00;;;7.50;;
63943;SDS011;50121;51.218;7.664;2023-07-20T12:08:54;7.80;;;7.20;;
63943;SDS011;50121;51.218;7.664;2023-07-20T12:14:00;8.02;;;7.53;;
63943;SDS011;50121;51.218;7.664;2023-07-20T12:16:34;7.88;;;7.38;;
63943;SDS011;50121;51.218;7.664;2023-07-20T12:21:30;8.30;;;7.63;;
63943;SDS011;50121;51.218;7.664;2023-07-20T12:23:57;7.85;;;7.25;;
63943;SDS011;50121;51.218;7.664;2023-07-20T12:26:25;8.15;;;7.53;;
63943;SDS011;50121;51.218;7.664;2023-07-20T12:28:53;8.00;;;7.30;;
63943;SDS011;50121;51.218;7.664;2023-07-20T12:31:21;7.47;;;6.88;;
63943;SDS011;50121;51.218;7.664;2023-07-20T12:33:50;8.00;;;7.40;;
63943;SDS011;50121;51.218;7.664;2023-07-20T12:36:18;7.90;;;7.30;;
63943;SDS011;50121;51.218;7.664;2023-07-20T12:38:46;7.55;;;7.05;;
63943;SDS011;50121;51.218;7.664;2023-07-20T12:41:13;8.15;;;7.50;;
63943;SDS011;50121;51.218;7.664;2023-07-20T12:43:42;7.43;;;6.88;;
63943;SDS011;50121;51.218;7.664;2023-07-20T12:46:11;7.82;;;7.32;;
63943;SDS011;50121;51.218;7.664;2023-07-20T12:48:40;7.03;;;6.63;;
63943;SDS011;50121;51.218;7.664;2023-07-20T12:51:11;7.13;;;6.63;;
63943;SDS011;50121;51.218;7.664;2023-07-20T12:53:40;7.03;;;6.53;;
63943;SDS011;50121;51.218;7.664;2023-07-20T12:56:33;7.15;;;6.75;;
63943;SDS011;50121;51.218;7.664;2023-07-20T12:59:25;7.17;;;6.77;;
63943;SDS011;50121;51.218;7.664;2023-07-20T13:01:53;8.15;;;7.53;;
63943;SDS011;50121;51.218;7.664;2023-07-20T13:04:26;8.27;;;7.67;;
63943;SDS011;50121;51.218;7.664;2023-07-20T13:06:55;7.43;;;6.93;;
63943;SDS011;50121;51.218;7.664;2023-07-20T13:09:54;9.13;;;8.50;;
63943;SDS011;50121;51.218;7.664;2023-07-20T13:12:22;9.75;;;8.95;;
63943;SDS011;50121;51.218;7.664;2023-07-20T13:14:56;8.23;;;7.73;;
63943;SDS011;50121;51.218;7.664;2023-07-20T13:17:34;7.65;;;7.05;;
63943;SDS011;50121;51.218;7.664;2023-07-20T13:20:07;7.78;;;7.25;;
63943;SDS011;50121;51.218;7.664;2023-07-20T13:22:39;7.73;;;7.23;;
63943;SDS011;50121;51.218;7.664;2023-07-20T13:25:07;8.05;;;7.55;;
63943;SDS011;50121;51.218;7.664;2023-07-20T13:27:37;8.07;;;7.47;;
63943;SDS011;50121;51.218;7.664;2023-07-20T13:30:08;8.13;;;7.30;;
63943;SDS011;50121;51.218;7.664;2023-07-20T13:32:41;8.00;;;7.50;;
63943;SDS011;50121;51.218;7.664;2023-07-20T13:35:12;8.07;;;7.57;;
63943;SDS011;50121;51.218;7.664;2023-07-20T13:37:41;9.98;;;9.23;;
63943;SDS011;50121;51.218;7.664;2023-07-20T13:40:08;8.75;;;8.07;;
63943;SDS011;50121;51.218;7.664;2023-07-20T13:42:40;7.63;;;7.13;;
63943;SDS011;50121;51.218;7.664;2023-07-20T13:45:08;8.25;;;7.65;;
63943;SDS011;50121;51.218;7.664;2023-07-20T13:47:39;7.60;;;7.10;;
63943;SDS011;50121;51.218;7.664;2023-07-20T13:50:07;7.60;;;7.15;;
63943;SDS011;50121;51.218;7.664;2023-07-20T13:52:35;8.15;;;7.50;;
63943;SDS011;50121;51.218;7.664;2023-07-20T13:55:08;8.13;;;7.63;;
63943;SDS011;50121;51.218;7.664;2023-07-20T13:57:37;7.90;;;7.40;;
63943;SDS011;50121;51.218;7.664;2023-07-20T14:00:15;7.95;;;7.40;;
63943;SDS011;50121;51.218;7.664;2023-07-20T14:02:43;7.63;;;7.13;;
63943;SDS011;50121;51.218;7.664;2023-07-20T14:05:14;7.80;;;7.30;;
63943;SDS011;50121;51.218;7.664;2023-07-20T14:07:46;8.55;;;7.95;;
63943;SDS011;50121;51.218;7.664;2023-07-20T14:10:19;8.02;;;7.53;;
63943;SDS011;50121;51.218;7.664;2023-07-20T14:12:49;7.20;;;6.70;;
63943;SDS011;50121;51.218;7.664;2023-07-20T14:15:17;7.50;;;7.03;;
63943;SDS011;50121;51.218;7.664;2023-07-20T14:17:46;7.78;;;7.28;;
63943;SDS011;50121;51.218;7.664;2023-07-20T14:20:14;7.45;;;6.95;;
63943;SDS011;50121;51.218;7.664;2023-07-20T14:22:44;7.45;;;6.95;;
63943;SDS011;50121;51.218;7.664;2023-07-20T14:25:11;7.28;;;6.78;;
63943;SDS011;50121;51.218;7.664;2023-07-20T14:27:39;6.88;;;6.47;;
63943;SDS011;50121;51.218;7.664;2023-07-20T14:30:07;7.60;;;6.93;;
63943;SDS011;50121;51.218;7.664;2023-07-20T14:32:35;6.60;;;6.20;;
63943;SDS011;50121;51.218;7.664;2023-07-20T14:35:03;6.95;;;6.55;;
63943;SDS011;50121;51.218;7.664;2023-07-20T14:37:30;6.88;;;6.47;;
63943;SDS011;50121;51.218;7.664;2023-07-20T14:39:58;7.05;;;6.65;;
63943;SDS011;50121;51.218;7.664;2023-07-20T14:42:26;7.30;;;6.80;;
63943;SDS011;50121;51.218;7.664;2023-07-20T14:44:53;6.78;;;6.38;;
63943;SDS011;50121;51.218;7.664;2023-07-20T14:47:21;6.68;;;6.25;;
63943;SDS011;50121;51.218;7.664;2023-07-20T14:49:49;6.40;;;6.00;;
63943;SDS011;50121;51.218;7.664;2023-07-20T14:52:17;7.45;;;6.95;;
63943;SDS011;50121;51.218;7.664;2023-07-20T14:54:44;7.05;;;6.55;;
63943;SDS011;50121;51.218;7.664;2023-07-20T14:57:11;7.40;;;6.82;;
63943;SDS011;50121;51.218;7.664;2023-07-20T14:59:43;7.53;;;7.10;;
63943;SDS011;50121;51.218;7.664;2023-07-20T15:02:11;7.75;;;7.10;;
63943;SDS011;50121;51.218;7.664;2023-07-20T15:04:48;7.60;;;7.05;;
63943;SDS011;50121;51.218;7.664;2023-07-20T15:07:19;7.40;;;6.90;;
63943;SDS011;50121;51.218;7.664;2023-07-20T15:09:48;7.13;;;6.50;;